13. August 2022

Uhrzeit Code Wetter Temp. Sichtweite Wolkendecke Wind METAR/SPECI
17:30
V
34 °C 10 km+ - 230° 230° 12 - 23 kt METAR LESU 131530Z 23012G23KT 190V270 9999 FEW080TCU 34/11 Q1014
17:00
V
34 °C 10 km+ - 220° 220° 12 kt METAR LESU 131500Z 22012KT 180V320 9999 FEW080TCU 34/11 Q1014
16:30
V
35 °C 10 km+ - 220° 220° 12 - 22 kt METAR LESU 131430Z 22012G22KT 190V250 9999 FEW080TCU 35/11 Q1014
16:00
V
35 °C 10 km+ - 220° 220° 11 - 22 kt METAR LESU 131400Z 22011G22KT 180V280 9999 FEW080TCU 35/13 Q1013
15:30
V
35 °C 10 km+ - 230° 230° 12 - 22 kt METAR LESU 131330Z 23012G22KT 180V270 9999 FEW080TCU 35/11 Q1014
15:00
V
35 °C 10 km+ - 210° 210° 14 - 24 kt METAR LESU 131300Z 21014G24KT 190V250 9999 FEW080TCU 35/11 Q1014
14:30
V
35 °C 10 km+ - 220° 220° 12 kt METAR LESU 131230Z 22012KT 180V250 9999 FEW080TCU 35/12 Q1014
14:00
V
32 °C 10 km+ - Var Var 4 kt METAR LESU 131200Z VRB04KT 9999 FEW080TCU 32/15 Q1015
13:30
V
31 °C 10 km+ - Var Var 2 kt METAR LESU 131130Z VRB02KT 9999 FEW080TCU 31/16 Q1015
13:00
V
29 °C 10 km+ - Var Var 3 kt METAR LESU 131100Z VRB03KT 9999 FEW080 29/16 Q1016
12:30
V
28 °C 10 km+ - 140° 140° 3 kt METAR LESU 131030Z 14003KT 060V220 CAVOK 28/16 Q1016
12:00
V
27 °C 10 km+ - Var Var 2 kt METAR LESU 131000Z VRB02KT CAVOK 27/16 Q1016
11:30
V
25 °C 10 km+ - 070° 070° 4 kt METAR LESU 130930Z 07004KT 030V100 CAVOK 25/16 Q1017
11:00
V
24 °C 10 km+ - 090° 090° 3 kt METAR LESU 130900Z 09003KT 020V150 CAVOK 24/17 Q1017
10:30
V
22 °C 10 km+ - Var Var 2 kt METAR LESU 130830Z VRB02KT CAVOK 22/17 Q1017
10:00
V
21 °C 10 km+ - 090° 090° 4 kt METAR LESU 130800Z 09004KT 040V170 CAVOK 21/16 Q1018
09:30
V
19 °C 10 km+ - 060° 060° 5 kt METAR LESU 130730Z 06005KT CAVOK 19/15 Q1018
09:00
V
19 °C 10 km+ - 060° 060° 3 kt METAR LESU 130700Z 06003KT 030V090 CAVOK 19/15 Q1018
08:30
V
18 °C 10 km+ - Var Var 2 kt METAR LESU 130630Z VRB02KT CAVOK 18/15 Q1018
08:00
V
18 °C 10 km+ - Var Var 1 kt METAR LESU 130600Z VRB01KT CAVOK 18/15 Q1017

12. August 2022

Uhrzeit Code Wetter Temp. Sichtweite Wolkendecke Wind METAR/SPECI
17:30
V
31 °C 10 km+ - 040° 040° 18 kt METAR LESU 121530Z 04018KT 9999 SCT080CB 31/14 Q1016
17:00
V
32 °C 10 km+ - 050° 050° 22 kt METAR LESU 121500Z 05022KT 9999 SCT080CB 32/13 Q1016
16:30
V
34 °C 10 km+ - Var Var 5 kt METAR LESU 121430Z VRB05KT 9999 SCT080CB 34/10 Q1015
16:00
V
36 °C 10 km+ - 180° 180° 9 kt METAR LESU 121400Z 18009KT 130V240 9999 FEW080CB 36/11 Q1015
15:30
V
36 °C 10 km+ - 210° 210° 7 kt METAR LESU 121330Z 21007KT 150V280 9999 FEW080CB 36/12 Q1016
15:00
V
34 °C 10 km+ - 210° 210° 7 kt METAR LESU 121300Z 21007KT 170V240 9999 FEW080CB 34/12 Q1016
14:30
V
33 °C 10 km+ - 190° 190° 5 kt METAR LESU 121230Z 19005KT 100V250 9999 FEW080TCU 33/15 Q1016
14:00
V
31 °C 10 km+ - Var Var 3 kt METAR LESU 121200Z VRB03KT 9999 FEW080 31/15 Q1017
13:30
V
30 °C 10 km+ - 100° 100° 3 kt METAR LESU 121130Z 10003KT 360V170 9999 FEW080 30/14 Q1017
13:00
V
28 °C 10 km+ - 130° 130° 3 kt METAR LESU 121100Z 13003KT 070V200 9999 FEW080 28/14 Q1018
12:30
V
27 °C 10 km+ - Var Var 3 kt METAR LESU 121030Z VRB03KT 9999 FEW080 27/14 Q1018
12:00
V
26 °C 10 km+ - Var Var 2 kt METAR LESU 121000Z VRB02KT 9999 FEW080 26/14 Q1019
11:30
V
24 °C 10 km+ - 050° 050° 3 kt METAR LESU 120930Z 05003KT 350V100 9999 FEW080 24/15 Q1019
11:00
V
23 °C 10 km+ - 070° 070° 3 kt METAR LESU 120900Z 07003KT 020V120 9999 FEW080 23/14 Q1020
10:30
V
22 °C 10 km+ - Var Var 2 kt METAR LESU 120830Z VRB02KT CAVOK 22/15 Q1020
10:00
V
20 °C 10 km+ - Var Var 2 kt METAR LESU 120800Z VRB02KT CAVOK 20/15 Q1020
09:30
V
19 °C 10 km+ - 070° 070° 3 kt METAR LESU 120730Z 07003KT CAVOK 19/14 Q1020
09:00
V
18 °C 10 km+ - 080° 080° 3 kt METAR LESU 120700Z 08003KT 020V100 CAVOK 18/14 Q1020

11. August 2022

Uhrzeit Code Wetter Temp. Sichtweite Wolkendecke Wind METAR/SPECI
17:30
V
30 °C 10 km+ - 060° 060° 11 kt METAR LESU 111530Z 06011KT 9999 FEW070CB 30/15 Q1017
17:00
V
33 °C 10 km+ - 190° 190° 10 kt METAR LESU 111500Z 19010KT 150V210 9999 FEW070CB 33/10 Q1018
Ältere Daten

Wir und Dritte verfolgen dein Internetverhalten auf unserer Website mit Cookies. Wenn du fortfährst, gehen wir davon aus, dass du mit unserer Cookie-Richtlinie einverstanden bist. Mehr erfahren